createdAt,value
2023-03-31T00:01:01.148Z,97809.03
2023-03-31T00:02:03.600Z,97810.47
2023-03-31T00:03:04.989Z,97800.94
2023-03-31T00:04:06.805Z,97805.03
2023-03-31T00:05:09.174Z,97808.00
2023-03-31T00:06:11.827Z,97803.34
2023-03-31T00:07:14.189Z,97804.88
2023-03-31T00:08:15.773Z,97796.50
2023-03-31T00:09:17.647Z,97800.56
2023-03-31T00:10:19.115Z,97794.47
2023-03-31T00:11:21.844Z,97798.22
2023-03-31T00:12:23.162Z,97795.13
2023-03-31T00:13:24.364Z,97790.91
2023-03-31T00:14:25.595Z,97785.94
2023-03-31T00:15:27.110Z,97788.91
2023-03-31T00:16:28.427Z,97786.56
2023-03-31T00:17:29.716Z,97782.06
2023-03-31T00:18:31.245Z,97781.72
2023-03-31T00:19:35.160Z,97775.66
2023-03-31T00:20:36.397Z,97779.72
2023-03-31T00:21:38.164Z,97776.63
2023-03-31T00:22:39.640Z,97780.81
2023-03-31T00:23:41.145Z,97780.03
2023-03-31T00:24:42.399Z,97774.72
2023-03-31T00:25:44.522Z,97767.53
2023-03-31T00:26:45.990Z,97768.78
2023-03-31T00:27:48.303Z,97767.53
2023-03-31T00:28:50.775Z,97766.78
2023-03-31T00:29:53.543Z,97766.31
2023-03-31T00:30:59.688Z,97756.03
2023-03-31T00:32:01.346Z,97757.91
2023-03-31T00:33:02.687Z,97750.28
2023-03-31T00:34:04.955Z,97753.38
2023-03-31T00:35:06.347Z,97748.53
2023-03-31T00:36:09.519Z,97746.94
2023-03-31T00:37:11.029Z,97747.44
2023-03-31T00:38:12.225Z,97747.88
2023-03-31T00:39:14.956Z,97741.16
2023-03-31T00:40:16.248Z,97740.81
2023-03-31T00:41:17.827Z,97745.34
2023-03-31T00:42:19.105Z,97739.72
2023-03-31T00:43:29.852Z,97735.94
2023-03-31T00:44:31.686Z,97738.59
2023-03-31T00:45:33.118Z,97733.75
2023-03-31T00:46:37.783Z,97726.13
2023-03-31T00:47:40.146Z,97727.53
2023-03-31T00:48:48.215Z,97726.44
2023-03-31T00:49:51.455Z,97724.25
2023-03-31T00:50:55.462Z,97714.28
2023-03-31T00:51:59.736Z,97708.63
2023-03-31T00:53:03.354Z,97701.78
2023-03-31T00:54:06.822Z,97707.84
2023-03-31T00:55:14.395Z,97707.09
2023-03-31T00:56:17.388Z,97706.31
2023-03-31T00:57:18.716Z,97709.75
2023-03-31T00:58:21.144Z,97709.28
2023-03-31T00:59:25.204Z,97705.09
2023-03-31T01:00:26.570Z,97701.78
2023-03-31T01:01:30.041Z,97718.03
2023-03-31T01:02:31.467Z,97711.97
2023-03-31T01:03:32.857Z,97708.53
2023-03-31T01:04:37.118Z,97707.09
2023-03-31T01:05:42.584Z,97714.72
2023-03-31T01:06:51.836Z,97713.28
2023-03-31T01:07:54.290Z,97712.84
2023-03-31T01:08:55.625Z,97708.75
2023-03-31T01:09:58.394Z,97698.91
2023-03-31T01:11:01.639Z,97697.16
2023-03-31T01:12:04.417Z,97691.88
2023-03-31T01:13:08.020Z,97688.44
2023-03-31T01:14:09.272Z,97690.75
2023-03-31T01:15:11.024Z,97688.22
2023-03-31T01:16:12.458Z,97689.56
2023-03-31T01:17:13.750Z,97680.50
2023-03-31T01:18:16.590Z,97679.84
2023-03-31T01:19:28.528Z,97685.59
2023-03-31T01:20:48.917Z,97678.09
2023-03-31T01:22:15.147Z,97672.91
2023-03-31T01:23:19.680Z,97677.53
2023-03-31T01:24:29.777Z,97673.91
2023-03-31T01:25:49.944Z,97670.38
2023-03-31T01:27:01.415Z,97668.28
2023-03-31T01:28:05.411Z,97673.41
2023-03-31T01:29:09.139Z,97667.56
2023-03-31T01:30:27.015Z,97675.97
2023-03-31T01:31:29.332Z,97663.03
2023-03-31T01:32:33.501Z,97659.91
2023-03-31T01:33:53.591Z,97651.81
2023-03-31T01:35:13.229Z,97654.81
2023-03-31T01:36:29.812Z,97647.19
2023-03-31T01:37:51.310Z,97649.06
2023-03-31T01:39:11.493Z,97648.75
2023-03-31T01:40:19.692Z,97651.72
2023-03-31T01:41:36.326Z,97652.94
2023-03-31T01:42:52.674Z,97655.59
2023-03-31T01:44:06.572Z,97652.94
2023-03-31T01:45:17.108Z,97654.06
2023-03-31T01:46:31.380Z,97647.97
2023-03-31T01:47:36.258Z,97657.03
2023-03-31T01:48:47.047Z,97659.50
2023-03-31T01:50:02.549Z,97652.94
2023-03-31T01:51:15.951Z,97651.41
2023-03-31T01:52:31.213Z,97648.75
2023-03-31T01:53:41.428Z,97650.97
2023-03-31T01:54:49.579Z,97651.72
2023-03-31T01:56:04.549Z,97652.81
2023-03-31T01:57:11.158Z,97660.47
2023-03-31T01:58:15.939Z,97659.16
2023-03-31T01:59:20.319Z,97659.16
2023-03-31T02:00:25.398Z,97656.84
2023-03-31T02:01:46.121Z,97662.16
2023-03-31T02:02:52.551Z,97662.38
2023-03-31T02:03:56.721Z,97666.91
2023-03-31T02:05:01.421Z,97670.50
2023-03-31T02:06:12.527Z,97662.84
2023-03-31T02:07:34.582Z,97659.75
2023-03-31T02:08:40.147Z,97669.28
2023-03-31T02:09:44.079Z,97668.06
2023-03-31T02:10:47.923Z,97659.75
2023-03-31T02:11:50.934Z,97656.34
2023-03-31T02:12:53.961Z,97654.88
2023-03-31T02:13:57.156Z,97658.78
2023-03-31T02:14:59.749Z,97651.47
2023-03-31T02:16:05.041Z,97654.56
2023-03-31T02:17:07.497Z,97642.50
2023-03-31T02:18:12.030Z,97639.66
2023-03-31T02:19:17.175Z,97644.19
2023-03-31T02:20:19.491Z,97638.53
2023-03-31T02:21:21.656Z,97630.91
2023-03-31T02:22:23.409Z,97638.13
2023-03-31T02:23:26.111Z,97643.78
2023-03-31T02:24:28.742Z,97644.84
2023-03-31T02:25:35.311Z,97632.38
2023-03-31T02:26:39.707Z,97628.78
2023-03-31T02:27:46.558Z,97634.41
2023-03-31T02:28:47.840Z,97620.47
2023-03-31T02:29:49.945Z,97621.81
2023-03-31T02:31:14.116Z,97626.22
2023-03-31T02:32:15.744Z,97627.66
2023-03-31T02:33:17.368Z,97626.78
2023-03-31T02:34:19.257Z,97622.47
2023-03-31T02:35:20.875Z,97624.53
2023-03-31T02:36:22.806Z,97618.44
2023-03-31T02:37:26.890Z,97609.63
2023-03-31T02:38:28.373Z,97610.69
2023-03-31T02:39:33.279Z,97603.72
2023-03-31T02:40:34.712Z,97597.19
2023-03-31T02:41:36.508Z,97598.31
2023-03-31T02:42:41.522Z,97595.66
2023-03-31T02:43:43.011Z,97595.53
2023-03-31T02:44:44.805Z,97595.41
2023-03-31T02:45:46.091Z,97591.97
2023-03-31T02:46:47.970Z,97586.25
2023-03-31T02:47:49.295Z,97584.66
2023-03-31T02:48:53.294Z,97585.34
2023-03-31T02:49:57.564Z,97582.69
2023-03-31T02:51:12.346Z,97576.91
2023-03-31T02:52:28.031Z,97566.97
2023-03-31T02:53:30.045Z,97563.88
2023-03-31T02:54:37.603Z,97549.38
2023-03-31T02:55:58.967Z,97546.28
2023-03-31T02:57:19.655Z,97541.31
2023-03-31T02:58:39.640Z,97530.56
2023-03-31T02:59:43.874Z,97525.72
2023-03-31T03:00:56.023Z,97526.16
2023-03-31T03:02:18.958Z,97513.22
2023-03-31T03:03:25.895Z,97517.63
2023-03-31T03:04:37.617Z,97515.31
2023-03-31T03:05:47.961Z,97505.81
2023-03-31T03:07:29.920Z,97505.34
2023-03-31T03:08:42.482Z,97505.34
2023-03-31T03:10:06.016Z,97493.63
2023-03-31T03:11:14.158Z,97485.25
2023-03-31T03:12:21.501Z,97481.47
2023-03-31T03:13:28.011Z,97473.53
2023-03-31T03:14:48.671Z,97481.47
2023-03-31T03:15:58.974Z,97466.13
2023-03-31T03:17:10.206Z,97466.47
2023-03-31T03:18:12.038Z,97466.47
2023-03-31T03:19:18.639Z,97465.00
2023-03-31T03:20:20.708Z,97453.97
2023-03-31T03:21:22.012Z,97449.78
2023-03-31T03:22:23.360Z,97449.00
2023-03-31T03:23:24.651Z,97437.63
2023-03-31T03:24:25.954Z,97436.03
2023-03-31T03:25:27.352Z,97437.94
2023-03-31T03:26:28.832Z,97431.53
2023-03-31T03:27:30.463Z,97429.97
2023-03-31T03:28:31.980Z,97430.31
2023-03-31T03:29:33.875Z,97424.34
2023-03-31T03:30:35.130Z,97419.34
2023-03-31T03:31:36.414Z,97427.00
2023-03-31T03:32:37.817Z,97422.13
2023-03-31T03:33:40.383Z,97427.00
2023-03-31T03:34:41.684Z,97423.59
2023-03-31T03:35:43.212Z,97425.34
2023-03-31T03:36:44.648Z,97418.47
2023-03-31T03:37:46.097Z,97424.44
2023-03-31T03:38:49.545Z,97430.41
2023-03-31T03:39:50.950Z,97427.97
2023-03-31T03:40:57.899Z,97421.78
2023-03-31T03:41:59.894Z,97417.47
2023-03-31T03:43:01.406Z,97413.25
2023-03-31T03:44:02.787Z,97404.09
2023-03-31T03:45:04.248Z,97398.81
2023-03-31T03:46:08.673Z,97398.81
2023-03-31T03:47:10.127Z,97397.03
2023-03-31T03:48:11.484Z,97396.59
2023-03-31T03:49:14.167Z,97392.72
2023-03-31T03:50:16.278Z,97388.84
2023-03-31T03:51:17.935Z,97387.31
2023-03-31T03:52:19.151Z,97382.78
2023-03-31T03:53:20.920Z,97382.44
2023-03-31T03:54:22.360Z,97371.06
2023-03-31T03:55:26.021Z,97368.88
2023-03-31T03:56:27.478Z,97369.63
2023-03-31T03:57:28.761Z,97359.78
2023-03-31T03:58:30.112Z,97352.28
2023-03-31T03:59:31.366Z,97347.09
2023-03-31T04:00:32.923Z,97345.97
2023-03-31T04:01:34.314Z,97339.25
2023-03-31T04:02:35.632Z,97339.03
2023-03-31T04:03:37.207Z,97333.25
2023-03-31T04:04:38.703Z,97330.94
2023-03-31T04:05:40.056Z,97327.88
2023-03-31T04:06:41.763Z,97321.00
2023-03-31T04:07:42.986Z,97328.19
2023-03-31T04:08:44.552Z,97327.75
2023-03-31T04:09:45.927Z,97321.69
2023-03-31T04:10:47.858Z,97322.56
2023-03-31T04:11:49.243Z,97310.41
2023-03-31T04:12:50.578Z,97309.84
2023-03-31T04:13:51.876Z,97304.00
2023-03-31T04:14:53.342Z,97305.53
2023-03-31T04:15:54.883Z,97298.69
2023-03-31T04:16:56.156Z,97308.41
2023-03-31T04:17:57.489Z,97308.28
2023-03-31T04:18:59.041Z,97304.09
2023-03-31T04:20:07.684Z,97308.84
2023-03-31T04:21:09.527Z,97300.47
2023-03-31T04:22:10.802Z,97300.34
2023-03-31T04:23:12.014Z,97301.69
2023-03-31T04:24:13.276Z,97294.84
2023-03-31T04:25:14.926Z,97298.91
2023-03-31T04:26:18.454Z,97295.50
2023-03-31T04:27:19.728Z,97293.19
2023-03-31T04:28:21.055Z,97295.03
2023-03-31T04:29:22.489Z,97290.19
2023-03-31T04:30:25.154Z,97286.56
2023-03-31T04:31:27.068Z,97293.50
2023-03-31T04:32:28.442Z,97294.63
2023-03-31T04:33:29.754Z,97292.84
2023-03-31T04:34:31.089Z,97281.47
2023-03-31T04:35:32.485Z,97287.88
2023-03-31T04:36:33.906Z,97285.69
2023-03-31T04:37:35.172Z,97290.19
2023-03-31T04:38:36.423Z,97284.44
2023-03-31T04:39:37.692Z,97288.22
2023-03-31T04:40:39.080Z,97288.84
2023-03-31T04:41:40.550Z,97282.44
2023-03-31T04:42:43.681Z,97294.16
2023-03-31T04:43:44.956Z,97291.09
2023-03-31T04:44:46.349Z,97292.28
2023-03-31T04:45:47.687Z,97294.94
2023-03-31T04:46:49.238Z,97278.72
2023-03-31T04:47:50.549Z,97277.16
2023-03-31T04:48:51.803Z,97276.72
2023-03-31T04:49:53.099Z,97265.69
2023-03-31T04:50:54.680Z,97262.25
2023-03-31T04:51:56.178Z,97269.75
2023-03-31T04:52:57.347Z,97260.25
2023-03-31T04:53:58.618Z,97260.25
2023-03-31T04:54:59.975Z,97256.06
2023-03-31T04:56:01.269Z,97262.16
2023-03-31T04:57:02.607Z,97268.53
2023-03-31T04:58:04.137Z,97267.75
2023-03-31T04:59:05.875Z,97278.81
2023-03-31T05:00:07.575Z,97277.72
2023-03-31T05:01:09.194Z,97271.97
2023-03-31T05:02:10.428Z,97272.41
2023-03-31T05:03:11.862Z,97276.16
2023-03-31T05:04:15.268Z,97275.06
2023-03-31T05:05:18.229Z,97277.38
2023-03-31T05:06:19.514Z,97291.16
2023-03-31T05:07:21.880Z,97283.22
2023-03-31T05:08:26.430Z,97278.59
2023-03-31T05:09:29.940Z,97269.88
2023-03-31T05:10:34.615Z,97261.94
2023-03-31T05:11:36.215Z,97266.88
2023-03-31T05:12:38.776Z,97272.97
2023-03-31T05:13:40.131Z,97279.72
2023-03-31T05:14:41.439Z,97278.94
2023-03-31T05:15:43.087Z,97272.06
2023-03-31T05:16:49.158Z,97283.78
2023-03-31T05:17:50.708Z,97290.19
2023-03-31T05:18:52.140Z,97284.13
2023-03-31T05:19:53.348Z,97284.13
2023-03-31T05:20:54.817Z,97298.13
2023-03-31T05:21:56.224Z,97300.03
2023-03-31T05:22:57.620Z,97302.97
2023-03-31T05:23:58.861Z,97298.78
2023-03-31T05:25:00.145Z,97313.16
2023-03-31T05:26:01.464Z,97314.25
2023-03-31T05:27:02.787Z,97315.16
2023-03-31T05:28:04.173Z,97324.19
2023-03-31T05:29:05.423Z,97329.03
2023-03-31T05:30:06.906Z,97332.03
2023-03-31T05:31:08.606Z,97329.69
2023-03-31T05:32:10.073Z,97325.19
2023-03-31T05:33:11.783Z,97323.19
2023-03-31T05:34:13.903Z,97322.41
2023-03-31T05:35:15.253Z,97314.78
2023-03-31T05:36:17.358Z,97320.06
2023-03-31T05:37:20.976Z,97318.09
2023-03-31T05:38:22.464Z,97308.72
2023-03-31T05:39:23.803Z,97304.84
2023-03-31T05:40:25.295Z,97304.41
2023-03-31T05:41:26.932Z,97307.03
2023-03-31T05:42:28.211Z,97286.31
2023-03-31T05:43:30.131Z,97295.78
2023-03-31T05:44:32.969Z,97286.66
2023-03-31T05:45:34.215Z,97282.22
2023-03-31T05:46:35.757Z,97282.34
2023-03-31T05:47:37.147Z,97282.22
2023-03-31T05:48:39.114Z,97279.56
2023-03-31T05:49:40.709Z,97283.78
2023-03-31T05:50:41.948Z,97279.69
2023-03-31T05:51:43.196Z,97278.78
2023-03-31T05:52:44.616Z,97271.97
2023-03-31T05:53:45.852Z,97277.69
2023-03-31T05:54:47.078Z,97272.59
2023-03-31T05:55:48.503Z,97272.16
2023-03-31T05:56:49.731Z,97269.09
2023-03-31T05:57:55.861Z,97265.22
2023-03-31T05:58:59.217Z,97262.91
2023-03-31T06:00:00.733Z,97259.78
2023-03-31T06:01:08.726Z,97254.06
2023-03-31T06:02:13.884Z,97249.66
2023-03-31T06:03:15.257Z,97240.16
2023-03-31T06:04:17.824Z,97241.25
2023-03-31T06:05:19.096Z,97240.81
2023-03-31T06:06:20.619Z,97235.84
2023-03-31T06:07:23.552Z,97229.00
2023-03-31T06:08:24.896Z,97221.84
2023-03-31T06:09:29.298Z,97224.50
2023-03-31T06:10:30.482Z,97212.78
2023-03-31T06:11:31.935Z,97215.53
2023-03-31T06:12:33.406Z,97221.63
2023-03-31T06:13:35.204Z,97217.88
2023-03-31T06:14:36.535Z,97211.81
2023-03-31T06:15:38.042Z,97215.88
2023-03-31T06:16:39.282Z,97209.91
2023-03-31T06:17:40.597Z,97208.38
2023-03-31T06:18:42.302Z,97212.44
2023-03-31T06:19:43.594Z,97201.72
2023-03-31T06:20:44.950Z,97206.25
2023-03-31T06:21:46.486Z,97201.72
2023-03-31T06:22:47.718Z,97205.16
2023-03-31T06:23:49.025Z,97196.00
2023-03-31T06:24:50.365Z,97194.47
2023-03-31T06:25:52.316Z,97188.06
2023-03-31T06:26:54.118Z,97181.44
2023-03-31T06:27:55.384Z,97182.97
2023-03-31T06:28:56.750Z,97182.88
2023-03-31T06:30:00.257Z,97191.25
2023-03-31T06:31:03.471Z,97196.91
2023-03-31T06:32:05.114Z,97186.53
2023-03-31T06:33:06.749Z,97189.03
2023-03-31T06:34:08.984Z,97183.09
2023-03-31T06:35:10.441Z,97186.94
2023-03-31T06:36:13.544Z,97178.88
2023-03-31T06:37:14.772Z,97173.59
2023-03-31T06:38:15.984Z,97185.75
2023-03-31T06:39:17.451Z,97180.13
2023-03-31T06:40:18.710Z,97175.94
2023-03-31T06:41:20.159Z,97177.00
2023-03-31T06:42:21.395Z,97174.34
2023-03-31T06:43:25.183Z,97167.53
2023-03-31T06:44:26.649Z,97177.69
2023-03-31T06:45:29.798Z,97176.56
2023-03-31T06:46:31.314Z,97177.34
2023-03-31T06:47:32.649Z,97186.41
2023-03-31T06:48:33.909Z,97185.16
2023-03-31T06:49:37.740Z,97182.09
2023-03-31T06:50:49.031Z,97182.44
2023-03-31T06:51:50.710Z,97183.97
2023-03-31T06:52:51.973Z,97187.38
2023-03-31T06:53:53.264Z,97192.69
2023-03-31T06:54:54.508Z,97197.97
2023-03-31T06:55:55.879Z,97199.53
2023-03-31T06:56:59.274Z,97200.84
2023-03-31T06:58:00.660Z,97204.16
2023-03-31T06:59:02.006Z,97217.75
2023-03-31T07:00:04.154Z,97211.66
2023-03-31T07:01:06.264Z,97218.81
2023-03-31T07:02:09.653Z,97229.41
2023-03-31T07:03:10.975Z,97238.13
2023-03-31T07:04:12.472Z,97238.47
2023-03-31T07:05:14.517Z,97239.03
2023-03-31T07:06:16.857Z,97240.13
2023-03-31T07:07:18.339Z,97246.97
2023-03-31T07:08:20.145Z,97241.25
2023-03-31T07:09:21.730Z,97245.44
2023-03-31T07:10:23.719Z,97256.03
2023-03-31T07:11:25.036Z,97246.66
2023-03-31T07:12:26.344Z,97247.44
2023-03-31T07:13:28.372Z,97242.91
2023-03-31T07:14:31.907Z,97227.78
2023-03-31T07:15:33.274Z,97207.72
2023-03-31T07:16:34.763Z,97203.72
2023-03-31T07:17:36.219Z,97211.69
2023-03-31T07:18:37.498Z,97199.84
2023-03-31T07:19:38.907Z,97173.06
2023-03-31T07:20:40.147Z,97153.19
2023-03-31T07:21:41.362Z,97129.69
2023-03-31T07:22:43.698Z,97130.44
2023-03-31T07:23:44.943Z,97139.03
2023-03-31T07:24:46.195Z,97132.00
2023-03-31T07:25:47.670Z,97137.72
2023-03-31T07:26:48.897Z,97135.72
2023-03-31T07:27:50.143Z,97144.34
2023-03-31T07:28:52.021Z,97126.22
2023-03-31T07:29:53.313Z,97126.22
2023-03-31T07:30:54.629Z,97135.28
2023-03-31T07:31:55.998Z,97147.84
2023-03-31T07:32:57.436Z,97143.13
2023-03-31T07:33:58.740Z,97150.31
2023-03-31T07:35:00.019Z,97157.16
2023-03-31T07:36:11.792Z,97158.09
2023-03-31T07:37:14.306Z,97162.41
2023-03-31T07:38:15.485Z,97152.69
2023-03-31T07:39:16.938Z,97147.38
2023-03-31T07:40:23.352Z,97146.25
2023-03-31T07:41:24.587Z,97136.72
2023-03-31T07:42:26.165Z,97134.06
2023-03-31T07:43:27.371Z,97133.19
2023-03-31T07:44:29.180Z,97138.47
2023-03-31T07:45:32.068Z,97132.47
2023-03-31T07:46:34.631Z,97140.88
2023-03-31T07:47:36.191Z,97145.06
2023-03-31T07:48:37.524Z,97136.22
2023-03-31T07:49:38.793Z,97138.69
2023-03-31T07:50:42.886Z,97144.84
2023-03-31T07:51:53.764Z,97146.06
2023-03-31T07:52:55.216Z,97139.03
2023-03-31T07:53:56.466Z,97132.91
2023-03-31T07:54:57.802Z,97137.59
2023-03-31T07:55:59.299Z,97130.50
2023-03-31T07:57:00.635Z,97136.69
2023-03-31T07:58:01.953Z,97136.69
2023-03-31T07:59:04.511Z,97134.78
2023-03-31T08:00:06.509Z,97132.56
2023-03-31T08:01:14.458Z,97128.72
2023-03-31T08:02:19.224Z,97127.25
2023-03-31T08:03:20.560Z,97127.78
2023-03-31T08:04:30.200Z,97130.53
2023-03-31T08:05:31.553Z,97135.84
2023-03-31T08:06:33.163Z,97130.53
2023-03-31T08:07:35.411Z,97131.03
2023-03-31T08:08:36.725Z,97134.38
2023-03-31T08:09:38.179Z,97135.56
2023-03-31T08:10:39.454Z,97130.25
2023-03-31T08:11:40.678Z,97127.25
2023-03-31T08:12:42.115Z,97144.81
2023-03-31T08:13:44.743Z,97135.50
2023-03-31T08:14:46.019Z,97133.06
2023-03-31T08:15:47.448Z,97132.53
2023-03-31T08:16:50.928Z,97130.78
2023-03-31T08:17:52.364Z,97130.69
2023-03-31T08:18:53.690Z,97135.03
2023-03-31T08:19:55.197Z,97127.41
2023-03-31T08:20:56.742Z,97140.78
2023-03-31T08:21:58.010Z,97125.31
2023-03-31T08:22:59.257Z,97125.75
2023-03-31T08:24:00.708Z,97120.84
2023-03-31T08:25:04.029Z,97123.63
2023-03-31T08:26:09.968Z,97116.38
2023-03-31T08:27:12.585Z,97115.25
2023-03-31T08:28:13.940Z,97131.19
2023-03-31T08:29:16.163Z,97130.84
2023-03-31T08:30:18.387Z,97124.41
2023-03-31T08:31:20.453Z,97123.78
2023-03-31T08:32:22.647Z,97107.19
2023-03-31T08:33:23.865Z,97119.44
2023-03-31T08:34:25.131Z,97116.16
2023-03-31T08:35:26.386Z,97120.75
2023-03-31T08:36:28.920Z,97119.31
2023-03-31T08:37:30.166Z,97123.50
2023-03-31T08:38:31.742Z,97117.81
2023-03-31T08:39:33.162Z,97121.69
2023-03-31T08:40:34.418Z,97113.69
2023-03-31T08:41:48.721Z,97100.38
2023-03-31T08:42:52.504Z,97113.22
2023-03-31T08:43:55.545Z,97105.28
2023-03-31T08:45:02.209Z,97099.53
2023-03-31T08:46:04.865Z,97105.63
2023-03-31T08:47:11.122Z,97110.19
2023-03-31T08:48:27.712Z,97104.47
2023-03-31T08:49:40.075Z,97100.78
2023-03-31T08:50:45.751Z,97107.72
2023-03-31T08:51:49.092Z,97100.38
2023-03-31T08:52:57.407Z,97102.75
2023-03-31T08:54:00.976Z,97104.28
2023-03-31T08:55:05.233Z,97102.81
2023-03-31T08:56:13.848Z,97107.31
2023-03-31T08:57:35.379Z,97108.84
2023-03-31T08:58:40.325Z,97106.59
2023-03-31T08:59:41.563Z,97108.19
2023-03-31T09:01:01.336Z,97098.38
2023-03-31T09:02:21.267Z,97103.84
2023-03-31T09:03:23.628Z,97087.41
2023-03-31T09:04:41.035Z,97096.66
2023-03-31T09:06:00.237Z,97087.56
2023-03-31T09:07:15.878Z,97094.13
2023-03-31T09:08:32.560Z,97088.53
2023-03-31T09:09:46.253Z,97103.09
2023-03-31T09:10:53.438Z,97100.50
2023-03-31T09:11:56.564Z,97086.03
2023-03-31T09:13:04.826Z,97089.03
2023-03-31T09:14:06.039Z,97095.16
2023-03-31T09:15:11.165Z,97083.91
2023-03-31T09:16:16.708Z,97087.38
2023-03-31T09:17:21.107Z,97088.56
2023-03-31T09:18:31.101Z,97084.00
2023-03-31T09:19:51.415Z,97081.44
2023-03-31T09:20:53.473Z,97086.91
2023-03-31T09:21:55.709Z,97077.06
2023-03-31T09:23:06.403Z,97073.72
2023-03-31T09:24:11.622Z,97085.91
2023-03-31T09:25:19.521Z,97077.22
2023-03-31T09:26:24.283Z,97085.66
2023-03-31T09:27:27.603Z,97078.16
2023-03-31T09:28:31.440Z,97077.84
2023-03-31T09:29:43.024Z,97070.28
2023-03-31T09:30:48.018Z,97087.16
2023-03-31T09:31:49.300Z,97089.09
2023-03-31T09:32:53.629Z,97074.16
2023-03-31T09:33:59.596Z,97085.53
2023-03-31T09:35:13.821Z,97089.34
2023-03-31T09:36:16.855Z,97093.53
2023-03-31T09:37:18.498Z,97098.41
2023-03-31T09:38:21.198Z,97103.31
2023-03-31T09:39:22.561Z,97088.41
2023-03-31T09:41:45.670Z,97088.38
2023-03-31T09:42:48.522Z,97083.03
2023-03-31T09:43:51.085Z,97079.19
2023-03-31T09:44:53.143Z,97078.06
2023-03-31T09:46:08.451Z,97073.53
2023-03-31T09:47:20.590Z,97076.22
2023-03-31T09:48:23.819Z,97064.09
2023-03-31T09:49:27.098Z,97078.16
2023-03-31T09:50:29.699Z,97064.47
2023-03-31T09:51:34.394Z,97065.59
2023-03-31T09:52:43.740Z,97069.41
2023-03-31T09:54:04.004Z,97062.28
2023-03-31T09:55:16.204Z,97072.31
2023-03-31T09:56:40.738Z,97073.50
2023-03-31T09:57:42.058Z,97070.13
2023-03-31T09:58:44.707Z,97055.78
2023-03-31T09:59:50.377Z,97059.25
2023-03-31T10:00:59.833Z,97054.38
2023-03-31T10:02:24.880Z,97055.25
2023-03-31T10:03:26.235Z,97053.16
2023-03-31T10:04:28.922Z,97055.06
2023-03-31T10:05:37.569Z,97053.97
2023-03-31T10:06:41.451Z,97044.16
2023-03-31T10:07:43.757Z,97054.16
2023-03-31T10:08:51.570Z,97058.81
2023-03-31T10:09:54.326Z,97047.81
2023-03-31T10:10:57.554Z,97040.97
2023-03-31T10:12:02.451Z,97039.41
2023-03-31T10:13:10.307Z,97043.94
2023-03-31T10:14:13.605Z,97041.25
2023-03-31T10:15:19.522Z,97031.69
2023-03-31T10:16:23.992Z,97044.28
2023-03-31T10:17:27.515Z,97043.56
2023-03-31T10:18:40.479Z,97041.34
2023-03-31T10:19:48.867Z,97048.25
2023-03-31T10:20:51.665Z,97043.72
2023-03-31T10:21:57.599Z,97039.50
2023-03-31T10:23:24.038Z,97031.53
2023-03-31T10:24:25.536Z,97037.63
2023-03-31T10:25:31.136Z,97039.16
2023-03-31T10:26:32.393Z,97040.25
2023-03-31T10:27:33.828Z,97044.06
2023-03-31T10:28:35.948Z,97043.22
2023-03-31T10:29:38.666Z,97031.41
2023-03-31T10:30:39.935Z,97023.75
2023-03-31T10:31:42.393Z,97029.88
2023-03-31T10:32:44.423Z,97029.94
2023-03-31T10:33:50.145Z,97021.19
2023-03-31T10:34:51.724Z,97010.91
2023-03-31T10:36:00.350Z,97009.72
2023-03-31T10:37:04.253Z,97003.22
2023-03-31T10:38:08.014Z,97002.06
2023-03-31T10:39:09.335Z,96997.84
2023-03-31T10:40:28.508Z,97002.44
2023-03-31T10:41:30.254Z,97005.75
2023-03-31T10:42:31.732Z,97009.53
2023-03-31T10:43:43.129Z,97012.09
2023-03-31T10:44:44.744Z,97008.59
2023-03-31T10:45:50.456Z,97006.56
2023-03-31T10:46:52.970Z,97019.19
2023-03-31T10:47:55.499Z,97016.09
2023-03-31T10:48:59.513Z,97022.22
2023-03-31T10:50:04.017Z,97015.69
2023-03-31T10:51:14.989Z,97019.88
2023-03-31T10:52:24.830Z,97012.22
2023-03-31T10:53:26.537Z,96999.28
2023-03-31T10:54:27.763Z,97004.22
2023-03-31T10:55:34.099Z,96998.50
2023-03-31T10:56:43.730Z,96993.22
2023-03-31T10:57:54.359Z,96973.34
2023-03-31T10:59:15.703Z,96998.09
2023-03-31T11:00:43.417Z,96987.41
2023-03-31T11:02:15.390Z,96991.69
2023-03-31T11:03:35.214Z,96977.28
2023-03-31T11:04:46.521Z,96975.75
2023-03-31T11:05:51.364Z,96986.09
2023-03-31T11:07:00.378Z,96967.41
2023-03-31T11:08:04.644Z,96967.38
2023-03-31T11:09:34.815Z,96966.28
2023-03-31T11:10:54.624Z,96977.03
2023-03-31T11:12:01.104Z,96968.59
2023-03-31T11:13:11.756Z,96962.06
2023-03-31T11:14:19.721Z,96969.22
2023-03-31T11:15:37.617Z,96989.81
2023-03-31T11:16:47.891Z,97003.53
2023-03-31T11:17:57.180Z,97006.78
2023-03-31T11:19:16.963Z,97011.44
2023-03-31T11:20:18.239Z,97027.50
2023-03-31T11:21:19.537Z,97043.75
2023-03-31T11:22:25.494Z,97047.50
2023-03-31T11:23:40.162Z,97065.78
2023-03-31T11:24:44.238Z,97081.81
2023-03-31T11:25:45.467Z,97085.84
2023-03-31T11:26:56.145Z,97107.75
2023-03-31T11:28:19.411Z,97115.44
2023-03-31T11:29:35.495Z,97125.72
2023-03-31T11:30:40.246Z,97123.53
2023-03-31T11:31:41.719Z,97118.75
2023-03-31T11:33:00.669Z,97127.34
2023-03-31T11:34:08.075Z,97111.31
2023-03-31T11:35:28.139Z,97110.28
2023-03-31T11:36:40.112Z,97121.06
2023-03-31T11:37:47.206Z,97107.59
2023-03-31T11:39:00.043Z,97100.00
2023-03-31T11:40:23.450Z,97105.56
2023-03-31T11:41:35.109Z,97112.66
2023-03-31T11:42:46.395Z,97106.56
2023-03-31T11:43:52.926Z,97102.22
2023-03-31T11:45:02.271Z,97098.78
2023-03-31T11:46:10.543Z,97105.13
2023-03-31T11:47:18.498Z,97099.56
2023-03-31T11:48:40.013Z,97101.97
2023-03-31T11:49:44.907Z,97101.78
2023-03-31T11:50:46.967Z,97092.19
2023-03-31T11:51:56.635Z,97092.63
2023-03-31T11:53:02.659Z,97088.19
2023-03-31T11:54:04.604Z,97085.09
2023-03-31T11:55:11.733Z,97084.84
2023-03-31T11:56:17.651Z,97079.19
2023-03-31T11:57:24.980Z,97076.19
2023-03-31T11:58:37.765Z,97063.44
2023-03-31T11:59:40.132Z,97067.56
2023-03-31T12:00:46.664Z,97065.81
2023-03-31T12:01:55.006Z,97068.66
2023-03-31T12:03:02.422Z,97069.06
2023-03-31T12:04:09.866Z,97063.34
2023-03-31T12:05:12.692Z,97057.69
2023-03-31T12:06:17.551Z,97061.88
2023-03-31T12:07:22.940Z,97057.41
2023-03-31T12:08:36.286Z,97056.41
2023-03-31T12:09:52.597Z,97058.53
2023-03-31T12:11:05.673Z,97049.19
2023-03-31T12:12:15.732Z,97044.81
2023-03-31T12:13:32.715Z,97047.94
2023-03-31T12:14:34.467Z,97047.75
2023-03-31T12:15:44.412Z,97048.34
2023-03-31T12:16:48.666Z,97031.06
2023-03-31T12:17:59.226Z,97029.56
2023-03-31T12:19:05.282Z,97036.88
2023-03-31T12:20:12.945Z,97039.66
2023-03-31T12:21:14.673Z,97043.63
2023-03-31T12:22:19.164Z,97036.13
2023-03-31T12:23:22.585Z,97036.97
2023-03-31T12:24:23.861Z,97039.63
2023-03-31T12:25:25.241Z,97039.72
2023-03-31T12:26:26.454Z,97033.69
2023-03-31T12:27:30.856Z,97032.91
2023-03-31T12:28:32.712Z,97034.94
2023-03-31T12:29:36.987Z,97038.50
2023-03-31T12:30:39.921Z,97035.97
2023-03-31T12:31:42.953Z,97025.88
2023-03-31T12:32:46.914Z,97022.47
2023-03-31T12:33:57.630Z,97023.69
2023-03-31T12:35:05.477Z,97010.91
2023-03-31T12:36:26.738Z,97023.09
2023-03-31T12:37:43.907Z,97025.09
2023-03-31T12:38:51.313Z,97029.19
2023-03-31T12:40:12.806Z,97023.94
2023-03-31T12:41:19.862Z,97017.56
2023-03-31T12:42:36.499Z,97018.78
2023-03-31T12:43:42.107Z,97015.44
2023-03-31T12:45:03.150Z,97015.22